sensor_id;sensor_type;location;lat;lon;timestamp;P1;durP1;ratioP1;P2;durP2;ratioP2
18505;SDS011;9382;53.242;10.438;2023-05-02T00:01:39;6.47;;;3.50;;
18505;SDS011;9382;53.242;10.438;2023-05-02T00:04:06;5.00;;;3.20;;
18505;SDS011;9382;53.242;10.438;2023-05-02T00:06:33;4.17;;;3.10;;
18505;SDS011;9382;53.242;10.438;2023-05-02T00:09:01;3.40;;;2.80;;
18505;SDS011;9382;53.242;10.438;2023-05-02T00:11:28;5.33;;;3.70;;
18505;SDS011;9382;53.242;10.438;2023-05-02T00:13:55;6.50;;;3.10;;
18505;SDS011;9382;53.242;10.438;2023-05-02T00:16:22;3.87;;;3.47;;
18505;SDS011;9382;53.242;10.438;2023-05-02T00:18:48;8.17;;;4.30;;
18505;SDS011;9382;53.242;10.438;2023-05-02T00:21:15;9.10;;;4.73;;
18505;SDS011;9382;53.242;10.438;2023-05-02T00:23:41;13.10;;;5.83;;
18505;SDS011;9382;53.242;10.438;2023-05-02T00:26:09;11.73;;;5.50;;
18505;SDS011;9382;53.242;10.438;2023-05-02T00:28:36;8.73;;;5.67;;
18505;SDS011;9382;53.242;10.438;2023-05-02T00:31:04;10.17;;;5.70;;
18505;SDS011;9382;53.242;10.438;2023-05-02T00:33:30;11.37;;;6.90;;
18505;SDS011;9382;53.242;10.438;2023-05-02T00:35:57;14.47;;;6.57;;
18505;SDS011;9382;53.242;10.438;2023-05-02T00:38:24;10.53;;;6.80;;
18505;SDS011;9382;53.242;10.438;2023-05-02T00:40:50;14.03;;;6.70;;
18505;SDS011;9382;53.242;10.438;2023-05-02T00:43:18;13.20;;;7.17;;
18505;SDS011;9382;53.242;10.438;2023-05-02T00:45:45;14.40;;;7.80;;
18505;SDS011;9382;53.242;10.438;2023-05-02T00:48:12;12.97;;;7.83;;
18505;SDS011;9382;53.242;10.438;2023-05-02T00:50:39;14.13;;;8.13;;
18505;SDS011;9382;53.242;10.438;2023-05-02T00:53:07;13.23;;;7.40;;
18505;SDS011;9382;53.242;10.438;2023-05-02T00:55:35;16.90;;;8.20;;
18505;SDS011;9382;53.242;10.438;2023-05-02T00:58:03;12.10;;;6.90;;
18505;SDS011;9382;53.242;10.438;2023-05-02T01:00:35;14.27;;;8.00;;
18505;SDS011;9382;53.242;10.438;2023-05-02T01:03:10;13.87;;;7.97;;
18505;SDS011;9382;53.242;10.438;2023-05-02T01:05:43;14.80;;;8.47;;
18505;SDS011;9382;53.242;10.438;2023-05-02T01:08:19;14.47;;;8.27;;
18505;SDS011;9382;53.242;10.438;2023-05-02T01:10:56;12.17;;;8.33;;
18505;SDS011;9382;53.242;10.438;2023-05-02T01:13:31;17.63;;;10.60;;
18505;SDS011;9382;53.242;10.438;2023-05-02T01:16:01;19.27;;;11.17;;
18505;SDS011;9382;53.242;10.438;2023-05-02T01:18:30;18.80;;;11.17;;
18505;SDS011;9382;53.242;10.438;2023-05-02T01:21:02;20.93;;;11.53;;
18505;SDS011;9382;53.242;10.438;2023-05-02T01:23:34;24.73;;;12.50;;
18505;SDS011;9382;53.242;10.438;2023-05-02T01:26:12;24.53;;;12.40;;
18505;SDS011;9382;53.242;10.438;2023-05-02T01:28:59;24.90;;;13.30;;
18505;SDS011;9382;53.242;10.438;2023-05-02T01:31:27;30.07;;;15.70;;
18505;SDS011;9382;53.242;10.438;2023-05-02T01:33:57;25.13;;;14.60;;
18505;SDS011;9382;53.242;10.438;2023-05-02T01:36:25;26.83;;;15.23;;
18505;SDS011;9382;53.242;10.438;2023-05-02T01:38:55;27.37;;;15.57;;
18505;SDS011;9382;53.242;10.438;2023-05-02T01:41:24;30.57;;;16.80;;
18505;SDS011;9382;53.242;10.438;2023-05-02T01:43:52;30.77;;;15.17;;
18505;SDS011;9382;53.242;10.438;2023-05-02T01:46:22;31.60;;;17.07;;
18505;SDS011;9382;53.242;10.438;2023-05-02T01:48:51;31.57;;;16.60;;
18505;SDS011;9382;53.242;10.438;2023-05-02T01:51:22;34.73;;;16.53;;
18505;SDS011;9382;53.242;10.438;2023-05-02T01:53:53;33.13;;;16.73;;
18505;SDS011;9382;53.242;10.438;2023-05-02T01:56:21;32.33;;;17.10;;
18505;SDS011;9382;53.242;10.438;2023-05-02T01:58:49;29.47;;;16.53;;
18505;SDS011;9382;53.242;10.438;2023-05-02T02:01:19;30.77;;;16.60;;
18505;SDS011;9382;53.242;10.438;2023-05-02T02:03:50;30.27;;;16.87;;
18505;SDS011;9382;53.242;10.438;2023-05-02T02:06:17;30.73;;;16.57;;
18505;SDS011;9382;53.242;10.438;2023-05-02T02:08:45;29.07;;;16.93;;
18505;SDS011;9382;53.242;10.438;2023-05-02T02:11:12;32.00;;;16.20;;
18505;SDS011;9382;53.242;10.438;2023-05-02T02:13:48;29.47;;;16.13;;
18505;SDS011;9382;53.242;10.438;2023-05-02T02:16:23;31.63;;;16.50;;
18505;SDS011;9382;53.242;10.438;2023-05-02T02:18:55;30.43;;;17.03;;
18505;SDS011;9382;53.242;10.438;2023-05-02T02:21:22;31.63;;;16.87;;
18505;SDS011;9382;53.242;10.438;2023-05-02T02:23:50;29.33;;;16.17;;
18505;SDS011;9382;53.242;10.438;2023-05-02T02:26:20;33.00;;;16.03;;
18505;SDS011;9382;53.242;10.438;2023-05-02T02:28:48;29.73;;;17.10;;
18505;SDS011;9382;53.242;10.438;2023-05-02T02:31:15;31.60;;;16.40;;
18505;SDS011;9382;53.242;10.438;2023-05-02T02:33:42;31.03;;;16.43;;
18505;SDS011;9382;53.242;10.438;2023-05-02T02:36:11;34.43;;;17.33;;
18505;SDS011;9382;53.242;10.438;2023-05-02T02:38:44;29.60;;;15.43;;
18505;SDS011;9382;53.242;10.438;2023-05-02T02:41:17;30.80;;;14.87;;
18505;SDS011;9382;53.242;10.438;2023-05-02T02:43:51;28.23;;;16.07;;
18505;SDS011;9382;53.242;10.438;2023-05-02T02:46:27;28.97;;;16.43;;
18505;SDS011;9382;53.242;10.438;2023-05-02T02:49:03;34.50;;;17.63;;
18505;SDS011;9382;53.242;10.438;2023-05-02T02:51:43;34.80;;;17.60;;
18505;SDS011;9382;53.242;10.438;2023-05-02T02:54:17;29.67;;;16.10;;
18505;SDS011;9382;53.242;10.438;2023-05-02T02:56:50;34.47;;;17.73;;
18505;SDS011;9382;53.242;10.438;2023-05-02T02:59:26;36.17;;;17.20;;
18505;SDS011;9382;53.242;10.438;2023-05-02T03:01:59;30.87;;;16.80;;
18505;SDS011;9382;53.242;10.438;2023-05-02T03:04:30;31.33;;;17.73;;
18505;SDS011;9382;53.242;10.438;2023-05-02T03:07:00;32.93;;;16.87;;
18505;SDS011;9382;53.242;10.438;2023-05-02T03:09:27;33.37;;;17.67;;
18505;SDS011;9382;53.242;10.438;2023-05-02T03:11:57;37.93;;;18.93;;
18505;SDS011;9382;53.242;10.438;2023-05-02T03:14:24;35.10;;;17.73;;
18505;SDS011;9382;53.242;10.438;2023-05-02T03:16:51;35.97;;;18.10;;
18505;SDS011;9382;53.242;10.438;2023-05-02T03:19:18;33.90;;;17.70;;
18505;SDS011;9382;53.242;10.438;2023-05-02T03:21:45;40.30;;;19.80;;
18505;SDS011;9382;53.242;10.438;2023-05-02T03:24:13;32.83;;;17.87;;
18505;SDS011;9382;53.242;10.438;2023-05-02T03:26:40;37.90;;;19.00;;
18505;SDS011;9382;53.242;10.438;2023-05-02T03:29:07;39.53;;;19.17;;
18505;SDS011;9382;53.242;10.438;2023-05-02T03:31:34;32.80;;;17.47;;
18505;SDS011;9382;53.242;10.438;2023-05-02T03:34:00;32.67;;;16.53;;
18505;SDS011;9382;53.242;10.438;2023-05-02T03:36:27;31.83;;;15.77;;
18505;SDS011;9382;53.242;10.438;2023-05-02T03:38:54;26.70;;;14.57;;
18505;SDS011;9382;53.242;10.438;2023-05-02T03:41:22;27.37;;;14.80;;
18505;SDS011;9382;53.242;10.438;2023-05-02T03:43:49;23.77;;;13.10;;
18505;SDS011;9382;53.242;10.438;2023-05-02T03:46:16;23.83;;;12.27;;
18505;SDS011;9382;53.242;10.438;2023-05-02T03:48:43;25.37;;;11.67;;
18505;SDS011;9382;53.242;10.438;2023-05-02T03:51:10;19.63;;;11.07;;
18505;SDS011;9382;53.242;10.438;2023-05-02T03:53:37;18.20;;;9.93;;
18505;SDS011;9382;53.242;10.438;2023-05-02T03:56:05;16.57;;;8.70;;
18505;SDS011;9382;53.242;10.438;2023-05-02T03:58:34;14.83;;;7.70;;
18505;SDS011;9382;53.242;10.438;2023-05-02T04:01:01;13.03;;;7.07;;
18505;SDS011;9382;53.242;10.438;2023-05-02T04:03:27;12.17;;;7.83;;
18505;SDS011;9382;53.242;10.438;2023-05-02T04:05:55;10.67;;;7.93;;
18505;SDS011;9382;53.242;10.438;2023-05-02T04:08:21;12.70;;;7.73;;
18505;SDS011;9382;53.242;10.438;2023-05-02T04:10:49;13.70;;;8.07;;
18505;SDS011;9382;53.242;10.438;2023-05-02T04:13:17;15.07;;;7.90;;
18505;SDS011;9382;53.242;10.438;2023-05-02T04:15:45;15.27;;;8.70;;
18505;SDS011;9382;53.242;10.438;2023-05-02T04:18:12;17.97;;;10.30;;
18505;SDS011;9382;53.242;10.438;2023-05-02T04:20:44;18.77;;;9.60;;
18505;SDS011;9382;53.242;10.438;2023-05-02T04:23:11;20.97;;;9.70;;
18505;SDS011;9382;53.242;10.438;2023-05-02T04:25:38;18.87;;;9.60;;
18505;SDS011;9382;53.242;10.438;2023-05-02T04:28:05;22.20;;;9.97;;
18505;SDS011;9382;53.242;10.438;2023-05-02T04:30:32;19.23;;;8.87;;
18505;SDS011;9382;53.242;10.438;2023-05-02T04:33:00;15.73;;;6.77;;
18505;SDS011;9382;53.242;10.438;2023-05-02T04:35:26;13.90;;;7.00;;
18505;SDS011;9382;53.242;10.438;2023-05-02T04:37:53;18.10;;;8.07;;
18505;SDS011;9382;53.242;10.438;2023-05-02T04:40:20;22.23;;;7.53;;
18505;SDS011;9382;53.242;10.438;2023-05-02T04:42:46;15.50;;;6.87;;
18505;SDS011;9382;53.242;10.438;2023-05-02T04:45:13;22.97;;;7.33;;
18505;SDS011;9382;53.242;10.438;2023-05-02T04:47:40;16.60;;;7.50;;
18505;SDS011;9382;53.242;10.438;2023-05-02T04:50:08;23.53;;;6.90;;
18505;SDS011;9382;53.242;10.438;2023-05-02T04:52:35;29.90;;;6.80;;
18505;SDS011;9382;53.242;10.438;2023-05-02T04:55:02;20.33;;;6.60;;
18505;SDS011;9382;53.242;10.438;2023-05-02T04:57:30;24.40;;;6.40;;
18505;SDS011;9382;53.242;10.438;2023-05-02T04:59:56;20.83;;;6.23;;
18505;SDS011;9382;53.242;10.438;2023-05-02T05:02:23;27.73;;;7.07;;
18505;SDS011;9382;53.242;10.438;2023-05-02T05:04:50;23.17;;;6.50;;
18505;SDS011;9382;53.242;10.438;2023-05-02T05:07:18;24.57;;;6.70;;
18505;SDS011;9382;53.242;10.438;2023-05-02T05:09:45;18.97;;;6.77;;
18505;SDS011;9382;53.242;10.438;2023-05-02T05:12:12;17.33;;;5.63;;
18505;SDS011;9382;53.242;10.438;2023-05-02T05:14:38;20.70;;;6.40;;
18505;SDS011;9382;53.242;10.438;2023-05-02T05:17:05;19.10;;;5.77;;
18505;SDS011;9382;53.242;10.438;2023-05-02T05:19:32;18.77;;;6.33;;
18505;SDS011;9382;53.242;10.438;2023-05-02T05:21:58;19.60;;;6.23;;
18505;SDS011;9382;53.242;10.438;2023-05-02T05:24:26;22.00;;;6.70;;
18505;SDS011;9382;53.242;10.438;2023-05-02T05:26:53;23.37;;;6.57;;
18505;SDS011;9382;53.242;10.438;2023-05-02T05:29:20;22.03;;;6.40;;
18505;SDS011;9382;53.242;10.438;2023-05-02T05:31:46;23.27;;;5.87;;
18505;SDS011;9382;53.242;10.438;2023-05-02T05:34:13;17.67;;;5.93;;
18505;SDS011;9382;53.242;10.438;2023-05-02T05:36:40;20.00;;;5.80;;
18505;SDS011;9382;53.242;10.438;2023-05-02T05:39:07;17.67;;;5.83;;
18505;SDS011;9382;53.242;10.438;2023-05-02T05:41:35;18.17;;;5.60;;
18505;SDS011;9382;53.242;10.438;2023-05-02T05:44:02;18.90;;;5.83;;
18505;SDS011;9382;53.242;10.438;2023-05-02T05:46:29;17.73;;;5.40;;
18505;SDS011;9382;53.242;10.438;2023-05-02T05:48:56;19.30;;;5.60;;
18505;SDS011;9382;53.242;10.438;2023-05-02T05:51:22;13.93;;;4.87;;
18505;SDS011;9382;53.242;10.438;2023-05-02T05:53:51;18.33;;;5.13;;
18505;SDS011;9382;53.242;10.438;2023-05-02T05:56:18;14.97;;;4.83;;
18505;SDS011;9382;53.242;10.438;2023-05-02T05:58:47;17.77;;;5.03;;
18505;SDS011;9382;53.242;10.438;2023-05-02T06:01:13;14.53;;;4.67;;
18505;SDS011;9382;53.242;10.438;2023-05-02T06:03:40;19.47;;;4.77;;
18505;SDS011;9382;53.242;10.438;2023-05-02T06:06:07;16.30;;;4.63;;
18505;SDS011;9382;53.242;10.438;2023-05-02T06:08:33;17.43;;;4.37;;
18505;SDS011;9382;53.242;10.438;2023-05-02T06:11:00;17.57;;;5.13;;
18505;SDS011;9382;53.242;10.438;2023-05-02T06:13:27;14.70;;;4.90;;
18505;SDS011;9382;53.242;10.438;2023-05-02T06:15:58;14.53;;;4.90;;
18505;SDS011;9382;53.242;10.438;2023-05-02T06:18:26;19.17;;;5.07;;
18505;SDS011;9382;53.242;10.438;2023-05-02T06:20:53;19.00;;;5.37;;
18505;SDS011;9382;53.242;10.438;2023-05-02T06:23:19;16.30;;;4.93;;
18505;SDS011;9382;53.242;10.438;2023-05-02T06:25:46;13.63;;;4.90;;
18505;SDS011;9382;53.242;10.438;2023-05-02T06:28:12;17.17;;;5.07;;
18505;SDS011;9382;53.242;10.438;2023-05-02T06:30:39;20.80;;;5.33;;
18505;SDS011;9382;53.242;10.438;2023-05-02T06:33:07;24.53;;;5.03;;
18505;SDS011;9382;53.242;10.438;2023-05-02T06:35:34;19.07;;;5.30;;
18505;SDS011;9382;53.242;10.438;2023-05-02T06:38:00;15.83;;;5.33;;
18505;SDS011;9382;53.242;10.438;2023-05-02T06:40:27;15.93;;;5.00;;
18505;SDS011;9382;53.242;10.438;2023-05-02T06:42:54;16.47;;;5.17;;
18505;SDS011;9382;53.242;10.438;2023-05-02T06:45:21;14.87;;;5.20;;
18505;SDS011;9382;53.242;10.438;2023-05-02T06:47:47;16.43;;;5.30;;
18505;SDS011;9382;53.242;10.438;2023-05-02T06:50:16;23.43;;;5.80;;
18505;SDS011;9382;53.242;10.438;2023-05-02T06:52:42;16.07;;;5.00;;
18505;SDS011;9382;53.242;10.438;2023-05-02T06:55:09;19.23;;;5.73;;
18505;SDS011;9382;53.242;10.438;2023-05-02T06:57:36;16.63;;;4.50;;
18505;SDS011;9382;53.242;10.438;2023-05-02T07:00:03;17.20;;;4.60;;
18505;SDS011;9382;53.242;10.438;2023-05-02T07:02:30;20.37;;;4.67;;
18505;SDS011;9382;53.242;10.438;2023-05-02T07:04:57;18.40;;;4.87;;
18505;SDS011;9382;53.242;10.438;2023-05-02T07:07:25;13.23;;;4.73;;
18505;SDS011;9382;53.242;10.438;2023-05-02T07:09:51;16.17;;;4.80;;
18505;SDS011;9382;53.242;10.438;2023-05-02T07:12:18;10.67;;;4.80;;
18505;SDS011;9382;53.242;10.438;2023-05-02T07:14:45;11.87;;;4.87;;
18505;SDS011;9382;53.242;10.438;2023-05-02T07:17:11;12.93;;;4.80;;
18505;SDS011;9382;53.242;10.438;2023-05-02T07:19:38;12.17;;;5.30;;
18505;SDS011;9382;53.242;10.438;2023-05-02T07:22:05;12.03;;;5.00;;
18505;SDS011;9382;53.242;10.438;2023-05-02T07:24:33;12.80;;;5.53;;
18505;SDS011;9382;53.242;10.438;2023-05-02T07:26:59;17.53;;;5.70;;
18505;SDS011;9382;53.242;10.438;2023-05-02T07:29:27;10.77;;;5.20;;
18505;SDS011;9382;53.242;10.438;2023-05-02T07:31:53;16.17;;;5.70;;
18505;SDS011;9382;53.242;10.438;2023-05-02T07:34:20;12.33;;;5.30;;
18505;SDS011;9382;53.242;10.438;2023-05-02T07:36:47;10.10;;;4.80;;
18505;SDS011;9382;53.242;10.438;2023-05-02T07:39:13;12.93;;;5.03;;
18505;SDS011;9382;53.242;10.438;2023-05-02T07:41:41;11.97;;;4.70;;
18505;SDS011;9382;53.242;10.438;2023-05-02T07:44:08;11.37;;;4.87;;
18505;SDS011;9382;53.242;10.438;2023-05-02T07:46:35;12.00;;;4.80;;
18505;SDS011;9382;53.242;10.438;2023-05-02T07:49:01;15.53;;;4.90;;
18505;SDS011;9382;53.242;10.438;2023-05-02T07:51:28;12.57;;;4.90;;
18505;SDS011;9382;53.242;10.438;2023-05-02T07:53:55;10.73;;;4.57;;
18505;SDS011;9382;53.242;10.438;2023-05-02T07:56:22;14.53;;;4.40;;
18505;SDS011;9382;53.242;10.438;2023-05-02T07:58:51;14.73;;;4.53;;
18505;SDS011;9382;53.242;10.438;2023-05-02T08:01:17;12.87;;;4.67;;
18505;SDS011;9382;53.242;10.438;2023-05-02T08:03:44;11.63;;;4.30;;
18505;SDS011;9382;53.242;10.438;2023-05-02T08:06:13;13.47;;;4.17;;
18505;SDS011;9382;53.242;10.438;2023-05-02T08:08:40;13.30;;;3.83;;
18505;SDS011;9382;53.242;10.438;2023-05-02T08:11:07;9.13;;;3.83;;
18505;SDS011;9382;53.242;10.438;2023-05-02T08:13:33;10.83;;;4.10;;
18505;SDS011;9382;53.242;10.438;2023-05-02T08:16:01;8.87;;;3.67;;
18505;SDS011;9382;53.242;10.438;2023-05-02T08:18:28;8.67;;;3.97;;
18505;SDS011;9382;53.242;10.438;2023-05-02T08:20:55;9.27;;;3.90;;
18505;SDS011;9382;53.242;10.438;2023-05-02T08:23:22;9.20;;;3.53;;
18505;SDS011;9382;53.242;10.438;2023-05-02T08:25:49;8.93;;;3.87;;
18505;SDS011;9382;53.242;10.438;2023-05-02T08:28:15;11.13;;;3.57;;
18505;SDS011;9382;53.242;10.438;2023-05-02T08:30:42;13.90;;;3.90;;
18505;SDS011;9382;53.242;10.438;2023-05-02T08:33:10;10.47;;;3.87;;
18505;SDS011;9382;53.242;10.438;2023-05-02T08:35:37;5.87;;;3.00;;
18505;SDS011;9382;53.242;10.438;2023-05-02T08:38:04;5.67;;;3.07;;
18505;SDS011;9382;53.242;10.438;2023-05-02T08:40:31;5.47;;;2.80;;
18505;SDS011;9382;53.242;10.438;2023-05-02T08:43:00;8.10;;;2.70;;
18505;SDS011;9382;53.242;10.438;2023-05-02T08:45:27;4.33;;;2.60;;
18505;SDS011;9382;53.242;10.438;2023-05-02T08:48:01;6.73;;;2.87;;
18505;SDS011;9382;53.242;10.438;2023-05-02T08:50:32;5.97;;;2.87;;
18505;SDS011;9382;53.242;10.438;2023-05-02T08:53:02;8.27;;;3.20;;
18505;SDS011;9382;53.242;10.438;2023-05-02T08:55:30;8.93;;;3.20;;
18505;SDS011;9382;53.242;10.438;2023-05-02T08:57:57;5.07;;;2.70;;
18505;SDS011;9382;53.242;10.438;2023-05-02T09:00:25;6.43;;;2.40;;
18505;SDS011;9382;53.242;10.438;2023-05-02T09:02:55;3.80;;;2.67;;
18505;SDS011;9382;53.242;10.438;2023-05-02T09:05:33;12.37;;;2.97;;
18505;SDS011;9382;53.242;10.438;2023-05-02T09:08:05;5.90;;;2.50;;
18505;SDS011;9382;53.242;10.438;2023-05-02T09:10:33;7.07;;;2.70;;
18505;SDS011;9382;53.242;10.438;2023-05-02T09:16:02;9.40;;;2.90;;
18505;SDS011;9382;53.242;10.438;2023-05-02T09:18:31;6.13;;;2.67;;
18505;SDS011;9382;53.242;10.438;2023-05-02T09:21:03;10.70;;;2.87;;
18505;SDS011;9382;53.242;10.438;2023-05-02T09:23:33;10.63;;;3.10;;
18505;SDS011;9382;53.242;10.438;2023-05-02T09:26:01;5.97;;;3.43;;
18505;SDS011;9382;53.242;10.438;2023-05-02T09:28:39;5.93;;;3.10;;
18505;SDS011;9382;53.242;10.438;2023-05-02T09:31:07;3.77;;;2.83;;
18505;SDS011;9382;53.242;10.438;2023-05-02T09:33:35;7.57;;;3.37;;
18505;SDS011;9382;53.242;10.438;2023-05-02T09:36:04;6.13;;;3.00;;
18505;SDS011;9382;53.242;10.438;2023-05-02T09:38:32;7.77;;;3.20;;
18505;SDS011;9382;53.242;10.438;2023-05-02T09:40:59;8.03;;;3.53;;
18505;SDS011;9382;53.242;10.438;2023-05-02T09:43:27;7.70;;;3.03;;
18505;SDS011;9382;53.242;10.438;2023-05-02T09:45:57;7.53;;;3.30;;
18505;SDS011;9382;53.242;10.438;2023-05-02T09:48:26;7.30;;;2.57;;
18505;SDS011;9382;53.242;10.438;2023-05-02T09:50:53;7.27;;;2.90;;
18505;SDS011;9382;53.242;10.438;2023-05-02T09:53:22;9.23;;;2.77;;
18505;SDS011;9382;53.242;10.438;2023-05-02T09:56:03;9.23;;;2.57;;
18505;SDS011;9382;53.242;10.438;2023-05-02T09:58:30;6.87;;;2.57;;
18505;SDS011;9382;53.242;10.438;2023-05-02T10:00:57;4.50;;;2.40;;
18505;SDS011;9382;53.242;10.438;2023-05-02T10:03:25;4.50;;;2.40;;
18505;SDS011;9382;53.242;10.438;2023-05-02T10:05:53;6.70;;;2.80;;
18505;SDS011;9382;53.242;10.438;2023-05-02T10:08:23;6.83;;;2.20;;
18505;SDS011;9382;53.242;10.438;2023-05-02T10:10:53;9.20;;;2.40;;
18505;SDS011;9382;53.242;10.438;2023-05-02T10:13:20;8.33;;;2.90;;
18505;SDS011;9382;53.242;10.438;2023-05-02T10:15:53;8.40;;;2.80;;
18505;SDS011;9382;53.242;10.438;2023-05-02T10:18:29;4.73;;;2.10;;
18505;SDS011;9382;53.242;10.438;2023-05-02T10:21:04;3.40;;;1.83;;
18505;SDS011;9382;53.242;10.438;2023-05-02T10:23:34;6.80;;;2.37;;
18505;SDS011;9382;53.242;10.438;2023-05-02T10:26:03;6.87;;;2.37;;
18505;SDS011;9382;53.242;10.438;2023-05-02T10:28:31;6.97;;;2.20;;
18505;SDS011;9382;53.242;10.438;2023-05-02T10:30:58;3.53;;;1.90;;
18505;SDS011;9382;53.242;10.438;2023-05-02T10:33:26;6.10;;;2.13;;
18505;SDS011;9382;53.242;10.438;2023-05-02T10:35:55;5.00;;;2.10;;
18505;SDS011;9382;53.242;10.438;2023-05-02T10:38:22;3.63;;;1.90;;
18505;SDS011;9382;53.242;10.438;2023-05-02T10:40:51;4.23;;;2.07;;
18505;SDS011;9382;53.242;10.438;2023-05-02T10:43:24;3.37;;;2.10;;
18505;SDS011;9382;53.242;10.438;2023-05-02T10:45:53;4.13;;;2.07;;
18505;SDS011;9382;53.242;10.438;2023-05-02T10:48:20;6.97;;;2.07;;
18505;SDS011;9382;53.242;10.438;2023-05-02T10:50:49;7.53;;;2.20;;
18505;SDS011;9382;53.242;10.438;2023-05-02T10:53:27;4.47;;;1.93;;
18505;SDS011;9382;53.242;10.438;2023-05-02T10:56:11;5.07;;;2.00;;
18505;SDS011;9382;53.242;10.438;2023-05-02T10:58:42;6.83;;;2.43;;
18505;SDS011;9382;53.242;10.438;2023-05-02T11:04:06;4.63;;;2.17;;
18505;SDS011;9382;53.242;10.438;2023-05-02T11:06:35;3.03;;;2.20;;
18505;SDS011;9382;53.242;10.438;2023-05-02T11:12:02;3.93;;;2.30;;
18505;SDS011;9382;53.242;10.438;2023-05-02T11:14:42;3.70;;;2.10;;
18505;SDS011;9382;53.242;10.438;2023-05-02T11:17:11;5.43;;;2.30;;
18505;SDS011;9382;53.242;10.438;2023-05-02T11:22:54;4.53;;;2.00;;
18505;SDS011;9382;53.242;10.438;2023-05-02T11:25:29;9.60;;;2.60;;
18505;SDS011;9382;53.242;10.438;2023-05-02T11:27:57;2.77;;;1.93;;
18505;SDS011;9382;53.242;10.438;2023-05-02T11:30:35;4.90;;;2.00;;
18505;SDS011;9382;53.242;10.438;2023-05-02T11:33:10;6.03;;;2.37;;
18505;SDS011;9382;53.242;10.438;2023-05-02T11:35:41;10.93;;;2.77;;
18505;SDS011;9382;53.242;10.438;2023-05-02T11:38:09;5.27;;;2.00;;
18505;SDS011;9382;53.242;10.438;2023-05-02T11:40:37;5.50;;;2.20;;
18505;SDS011;9382;53.242;10.438;2023-05-02T11:43:12;4.73;;;2.07;;
18505;SDS011;9382;53.242;10.438;2023-05-02T11:45:39;2.13;;;1.60;;
18505;SDS011;9382;53.242;10.438;2023-05-02T11:48:07;3.63;;;1.93;;
18505;SDS011;9382;53.242;10.438;2023-05-02T11:50:40;3.93;;;1.77;;
18505;SDS011;9382;53.242;10.438;2023-05-02T11:53:09;4.57;;;1.93;;
18505;SDS011;9382;53.242;10.438;2023-05-02T11:55:37;4.30;;;1.87;;
18505;SDS011;9382;53.242;10.438;2023-05-02T11:58:12;3.37;;;1.73;;
18505;SDS011;9382;53.242;10.438;2023-05-02T12:00:40;3.83;;;1.80;;
18505;SDS011;9382;53.242;10.438;2023-05-02T12:03:17;3.40;;;1.60;;
18505;SDS011;9382;53.242;10.438;2023-05-02T12:05:46;3.07;;;1.80;;
18505;SDS011;9382;53.242;10.438;2023-05-02T12:08:16;3.43;;;1.70;;
18505;SDS011;9382;53.242;10.438;2023-05-02T12:10:44;3.87;;;1.60;;
18505;SDS011;9382;53.242;10.438;2023-05-02T12:13:12;4.83;;;1.80;;
18505;SDS011;9382;53.242;10.438;2023-05-02T12:15:39;4.00;;;2.00;;
18505;SDS011;9382;53.242;10.438;2023-05-02T12:18:06;2.73;;;1.70;;
18505;SDS011;9382;53.242;10.438;2023-05-02T12:20:33;2.57;;;1.50;;
18505;SDS011;9382;53.242;10.438;2023-05-02T12:23:01;4.43;;;1.57;;
18505;SDS011;9382;53.242;10.438;2023-05-02T12:25:31;2.13;;;1.57;;
18505;SDS011;9382;53.242;10.438;2023-05-02T12:27:58;5.00;;;1.70;;
18505;SDS011;9382;53.242;10.438;2023-05-02T12:30:26;2.17;;;1.60;;
18505;SDS011;9382;53.242;10.438;2023-05-02T12:32:56;6.60;;;1.97;;
18505;SDS011;9382;53.242;10.438;2023-05-02T12:35:24;4.30;;;1.73;;
18505;SDS011;9382;53.242;10.438;2023-05-02T12:37:51;2.87;;;1.50;;
18505;SDS011;9382;53.242;10.438;2023-05-02T12:40:18;3.13;;;1.93;;
18505;SDS011;9382;53.242;10.438;2023-05-02T12:42:56;4.97;;;1.60;;
18505;SDS011;9382;53.242;10.438;2023-05-02T12:45:24;4.20;;;1.80;;
18505;SDS011;9382;53.242;10.438;2023-05-02T12:47:59;2.90;;;1.77;;
18505;SDS011;9382;53.242;10.438;2023-05-02T12:50:36;4.43;;;1.60;;
18505;SDS011;9382;53.242;10.438;2023-05-02T12:53:03;3.57;;;1.70;;
18505;SDS011;9382;53.242;10.438;2023-05-02T12:55:31;4.07;;;1.70;;
18505;SDS011;9382;53.242;10.438;2023-05-02T12:57:59;5.10;;;1.80;;
18505;SDS011;9382;53.242;10.438;2023-05-02T13:00:28;8.10;;;2.13;;
18505;SDS011;9382;53.242;10.438;2023-05-02T13:02:55;3.87;;;1.90;;
18505;SDS011;9382;53.242;10.438;2023-05-02T13:05:23;3.00;;;1.70;;
18505;SDS011;9382;53.242;10.438;2023-05-02T13:07:50;3.63;;;2.13;;
18505;SDS011;9382;53.242;10.438;2023-05-02T13:10:17;2.90;;;1.80;;
18505;SDS011;9382;53.242;10.438;2023-05-02T13:12:44;3.77;;;1.70;;
18505;SDS011;9382;53.242;10.438;2023-05-02T13:15:12;5.80;;;1.80;;
18505;SDS011;9382;53.242;10.438;2023-05-02T13:17:41;5.40;;;1.90;;
18505;SDS011;9382;53.242;10.438;2023-05-02T13:20:08;3.90;;;1.90;;
18505;SDS011;9382;53.242;10.438;2023-05-02T13:22:36;4.67;;;2.00;;
18505;SDS011;9382;53.242;10.438;2023-05-02T13:25:03;6.67;;;1.97;;
18505;SDS011;9382;53.242;10.438;2023-05-02T13:27:31;3.77;;;2.00;;
18505;SDS011;9382;53.242;10.438;2023-05-02T13:29:59;4.40;;;1.90;;
18505;SDS011;9382;53.242;10.438;2023-05-02T13:32:26;3.37;;;1.67;;
18505;SDS011;9382;53.242;10.438;2023-05-02T13:34:55;4.77;;;1.50;;
18505;SDS011;9382;53.242;10.438;2023-05-02T13:37:22;6.13;;;1.93;;
18505;SDS011;9382;53.242;10.438;2023-05-02T13:39:50;4.70;;;1.70;;
18505;SDS011;9382;53.242;10.438;2023-05-02T13:42:17;6.17;;;1.90;;
18505;SDS011;9382;53.242;10.438;2023-05-02T13:44:45;3.90;;;1.90;;
18505;SDS011;9382;53.242;10.438;2023-05-02T13:47:12;5.57;;;1.80;;
18505;SDS011;9382;53.242;10.438;2023-05-02T13:49:39;6.27;;;2.00;;
18505;SDS011;9382;53.242;10.438;2023-05-02T13:52:08;5.20;;;1.80;;
18505;SDS011;9382;53.242;10.438;2023-05-02T13:54:35;7.83;;;2.10;;
18505;SDS011;9382;53.242;10.438;2023-05-02T13:57:03;4.87;;;2.00;;
18505;SDS011;9382;53.242;10.438;2023-05-02T13:59:30;5.43;;;2.07;;
18505;SDS011;9382;53.242;10.438;2023-05-02T14:01:57;3.70;;;1.87;;
18505;SDS011;9382;53.242;10.438;2023-05-02T14:04:25;5.13;;;1.70;;
18505;SDS011;9382;53.242;10.438;2023-05-02T14:06:52;2.33;;;1.70;;
18505;SDS011;9382;53.242;10.438;2023-05-02T14:09:20;3.13;;;1.80;;
18505;SDS011;9382;53.242;10.438;2023-05-02T14:11:48;1.80;;;1.70;;
18505;SDS011;9382;53.242;10.438;2023-05-02T14:14:15;4.03;;;1.80;;
18505;SDS011;9382;53.242;10.438;2023-05-02T14:16:42;4.90;;;2.00;;
18505;SDS011;9382;53.242;10.438;2023-05-02T14:19:09;2.03;;;1.50;;
18505;SDS011;9382;53.242;10.438;2023-05-02T14:21:36;5.47;;;1.73;;
18505;SDS011;9382;53.242;10.438;2023-05-02T14:24:04;3.30;;;1.87;;
18505;SDS011;9382;53.242;10.438;2023-05-02T14:26:33;3.53;;;1.80;;
18505;SDS011;9382;53.242;10.438;2023-05-02T14:29:00;4.10;;;1.83;;
18505;SDS011;9382;53.242;10.438;2023-05-02T14:31:27;6.97;;;1.93;;
18505;SDS011;9382;53.242;10.438;2023-05-02T14:33:54;6.37;;;1.80;;
18505;SDS011;9382;53.242;10.438;2023-05-02T14:36:21;3.10;;;1.80;;
18505;SDS011;9382;53.242;10.438;2023-05-02T14:38:48;5.07;;;1.90;;
18505;SDS011;9382;53.242;10.438;2023-05-02T14:41:15;2.43;;;1.70;;
18505;SDS011;9382;53.242;10.438;2023-05-02T14:43:43;2.97;;;2.10;;
18505;SDS011;9382;53.242;10.438;2023-05-02T14:46:10;1.93;;;1.60;;
18505;SDS011;9382;53.242;10.438;2023-05-02T14:48:37;4.20;;;1.90;;
18505;SDS011;9382;53.242;10.438;2023-05-02T14:51:04;4.67;;;1.90;;
18505;SDS011;9382;53.242;10.438;2023-05-02T14:53:32;3.73;;;2.10;;
18505;SDS011;9382;53.242;10.438;2023-05-02T14:55:59;7.60;;;2.30;;
18505;SDS011;9382;53.242;10.438;2023-05-02T14:58:26;4.43;;;2.50;;